createdAt,value
2023-07-03T00:02:54.915Z,98317.61
2023-07-03T00:06:11.660Z,98314.69
2023-07-03T00:09:28.108Z,98322.97
2023-07-03T00:12:44.995Z,98323.09
2023-07-03T00:16:05.874Z,98326.02
2023-07-03T00:19:24.066Z,98328.89
2023-07-03T00:22:40.691Z,98330.41
2023-07-03T00:25:57.363Z,98335.27
2023-07-03T00:29:16.238Z,98336.41
2023-07-03T00:32:32.642Z,98343.75
2023-07-03T00:35:49.858Z,98335.46
2023-07-03T00:39:09.280Z,98338.97
2023-07-03T00:42:25.800Z,98336.75
2023-07-03T00:45:45.152Z,98343.66
2023-07-03T00:49:01.839Z,98342.02
2023-07-03T00:55:34.194Z,98344.61
2023-07-03T00:58:50.786Z,98340.05
2023-07-03T01:02:12.813Z,98349.48
2023-07-03T01:05:34.455Z,98344.00
2023-07-03T01:08:54.348Z,98348.66
2023-07-03T01:12:13.661Z,98349.55
2023-07-03T01:15:37.971Z,98351.52
2023-07-03T01:18:56.503Z,98355.49
2023-07-03T01:25:31.029Z,98366.31
2023-07-03T01:28:50.775Z,98363.97
2023-07-03T01:32:11.358Z,98359.19
2023-07-03T01:35:29.090Z,98366.19
2023-07-03T01:38:52.764Z,98356.30
2023-07-03T01:42:10.608Z,98358.61
2023-07-03T01:45:28.301Z,98351.39
2023-07-03T01:48:46.001Z,98353.02
2023-07-03T01:52:08.334Z,98354.66
2023-07-03T01:55:29.765Z,98351.14
2023-07-03T01:58:50.516Z,98354.08
2023-07-03T02:02:12.217Z,98361.28
2023-07-03T02:05:34.380Z,98354.29
2023-07-03T02:08:51.613Z,98367.12
2023-07-03T02:12:08.938Z,98362.49
2023-07-03T02:15:26.354Z,98364.74
2023-07-03T02:18:43.008Z,98367.45
2023-07-03T02:21:59.426Z,98368.98
2023-07-03T02:25:18.183Z,98364.67
2023-07-03T02:28:34.739Z,98364.91
2023-07-03T02:31:51.861Z,98364.69
2023-07-03T02:35:08.322Z,98369.39
2023-07-03T02:38:24.874Z,98371.14
2023-07-03T02:41:41.467Z,98374.30
2023-07-03T02:44:59.740Z,98374.66
2023-07-03T02:48:18.368Z,98379.08
2023-07-03T02:51:36.523Z,98380.15
2023-07-03T02:54:52.281Z,98388.19
2023-07-03T02:58:08.541Z,98387.11
2023-07-03T03:01:25.867Z,98385.96
2023-07-03T03:04:42.358Z,98380.73
2023-07-03T03:07:58.864Z,98375.48
2023-07-03T03:11:16.144Z,98376.76
2023-07-03T03:14:32.801Z,98372.09
2023-07-03T03:17:49.582Z,98374.87
2023-07-03T03:21:06.534Z,98374.52
2023-07-03T03:24:23.393Z,98379.31
2023-07-03T03:27:39.773Z,98375.45
2023-07-03T03:30:56.432Z,98380.92
2023-07-03T03:34:14.693Z,98370.09
2023-07-03T03:37:31.181Z,98372.99
2023-07-03T03:40:49.623Z,98378.05
2023-07-03T03:44:06.020Z,98385.39
2023-07-03T03:47:23.569Z,98392.25
2023-07-03T03:50:41.032Z,98389.68
2023-07-03T03:53:57.695Z,98395.39
2023-07-03T03:57:16.071Z,98397.38
2023-07-03T04:00:32.892Z,98398.18
2023-07-03T04:03:49.456Z,98396.09
2023-07-03T04:07:05.923Z,98389.44
2023-07-03T04:10:22.648Z,98392.47
2023-07-03T04:13:39.169Z,98396.89
2023-07-03T04:16:59.314Z,98397.59
2023-07-03T04:20:20.540Z,98402.56
2023-07-03T04:23:37.220Z,98397.09
2023-07-03T04:26:55.630Z,98396.14
2023-07-03T04:30:14.029Z,98403.55
2023-07-03T04:33:30.777Z,98405.63
2023-07-03T04:36:49.689Z,98403.63
2023-07-03T04:40:05.560Z,98408.06
2023-07-03T04:43:21.941Z,98405.23
2023-07-03T04:46:40.337Z,98409.97
2023-07-03T04:49:57.205Z,98414.38
2023-07-03T04:53:13.729Z,98422.14
2023-07-03T04:56:30.861Z,98423.39
2023-07-03T04:59:47.127Z,98427.63
2023-07-03T05:03:05.977Z,98422.42
2023-07-03T05:06:22.590Z,98426.97
2023-07-03T05:09:39.136Z,98431.00
2023-07-03T05:12:56.480Z,98433.36
2023-07-03T05:16:13.462Z,98435.39
2023-07-03T05:19:30.176Z,98433.31
2023-07-03T05:26:02.268Z,98431.81
2023-07-03T05:29:19.884Z,98439.01
2023-07-03T05:32:36.473Z,98429.20
2023-07-03T05:35:54.501Z,98434.98
2023-07-03T05:39:11.388Z,98438.58
2023-07-03T05:42:29.136Z,98441.50
2023-07-03T05:45:45.486Z,98445.92
2023-07-03T05:49:01.923Z,98440.37
2023-07-03T05:52:20.652Z,98451.80
2023-07-03T05:55:37.175Z,98459.23
2023-07-03T05:58:54.188Z,98457.19
2023-07-03T06:02:13.156Z,98463.48
2023-07-03T06:05:30.059Z,98471.63
2023-07-03T06:08:46.465Z,98476.85
2023-07-03T06:12:03.318Z,98478.55
2023-07-03T06:15:23.979Z,98474.60
2023-07-03T06:18:40.396Z,98471.95
2023-07-03T06:21:56.823Z,98473.55
2023-07-03T06:25:16.050Z,98480.13
2023-07-03T06:28:32.689Z,98475.82
2023-07-03T06:31:49.490Z,98468.29
2023-07-03T06:35:07.624Z,98468.87
2023-07-03T06:38:24.268Z,98465.12
2023-07-03T06:41:43.113Z,98472.19
2023-07-03T06:45:00.027Z,98475.75
2023-07-03T06:48:16.639Z,98471.16
2023-07-03T06:51:37.582Z,98462.55
2023-07-03T06:54:54.951Z,98470.13
2023-07-03T06:58:11.892Z,98466.14
2023-07-03T07:01:31.481Z,98470.20
2023-07-03T07:04:49.808Z,98475.88
2023-07-03T07:08:06.345Z,98471.84
2023-07-03T07:11:32.415Z,98473.73
2023-07-03T07:14:53.513Z,98468.33
2023-07-03T07:18:10.052Z,98467.24
2023-07-03T07:21:26.895Z,98466.70
2023-07-03T07:24:43.630Z,98468.32
2023-07-03T07:28:00.253Z,98464.27
2023-07-03T07:31:17.105Z,98466.70
2023-07-03T07:34:34.382Z,98468.82
2023-07-03T07:37:51.402Z,98464.18
2023-07-03T07:41:12.653Z,98473.30
2023-07-03T07:44:29.220Z,98468.95
2023-07-03T07:47:45.720Z,98473.16
2023-07-03T07:51:06.172Z,98468.14
2023-07-03T07:54:22.841Z,98465.38
2023-07-03T07:57:39.295Z,98475.69
2023-07-03T08:01:01.539Z,98473.02
2023-07-03T08:04:18.312Z,98475.05
2023-07-03T08:14:06.611Z,98467.31
2023-07-03T08:17:23.247Z,98475.28
2023-07-03T08:20:39.768Z,98482.17
2023-07-03T08:23:56.930Z,98469.13
2023-07-03T08:27:14.187Z,98478.77
2023-07-03T08:30:31.795Z,98467.41
2023-07-03T08:33:48.553Z,98470.59
2023-07-03T08:37:08.147Z,98486.11
2023-07-03T08:40:28.072Z,98481.97
2023-07-03T08:43:48.783Z,98480.25
2023-07-03T08:47:12.156Z,98475.70
2023-07-03T08:50:37.077Z,98482.14
2023-07-03T08:57:09.265Z,98477.70
2023-07-03T09:00:28.753Z,98481.58
2023-07-03T09:03:52.832Z,98481.39
2023-07-03T09:07:14.830Z,98483.41
2023-07-03T09:10:36.782Z,98486.57
2023-07-03T09:13:59.100Z,98476.67
2023-07-03T09:17:19.249Z,98477.38
2023-07-03T09:20:37.656Z,98480.94
2023-07-03T09:27:17.052Z,98470.07
2023-07-03T09:30:34.912Z,98472.59
2023-07-03T09:33:51.981Z,98474.70
2023-07-03T09:37:09.500Z,98482.26
2023-07-03T09:43:41.952Z,98471.98
2023-07-03T09:46:58.614Z,98463.50
2023-07-03T09:50:18.489Z,98481.04
2023-07-03T09:56:51.644Z,98476.95
2023-07-03T10:00:22.905Z,98482.67
2023-07-03T10:03:42.102Z,98497.61
2023-07-03T10:07:10.430Z,98490.08
2023-07-03T10:13:53.759Z,98474.30
2023-07-03T10:17:17.645Z,98495.45
2023-07-03T10:20:39.436Z,98499.72
2023-07-03T10:23:57.135Z,98493.89
2023-07-03T10:27:15.707Z,98498.02
2023-07-03T10:30:33.562Z,98486.83
2023-07-03T10:33:54.912Z,98498.24
2023-07-03T10:37:15.815Z,98492.37
2023-07-03T10:40:37.666Z,98490.35
2023-07-03T10:43:59.741Z,98487.88
2023-07-03T10:47:25.780Z,98477.41
2023-07-03T10:50:47.402Z,98481.44
2023-07-03T10:54:10.019Z,98473.88
2023-07-03T10:57:32.067Z,98484.98
2023-07-03T11:00:54.986Z,98474.91
2023-07-03T11:04:24.600Z,98476.44
2023-07-03T11:07:45.726Z,98465.41
2023-07-03T11:11:08.105Z,98469.05
2023-07-03T11:14:30.113Z,98465.63
2023-07-03T11:24:46.248Z,98455.27
2023-07-03T11:28:10.834Z,98467.36
2023-07-03T11:31:30.368Z,98471.88
2023-07-03T11:45:34.754Z,98454.27
2023-07-03T11:49:01.234Z,98449.81
2023-07-03T11:52:35.564Z,98442.94
2023-07-03T11:56:02.997Z,98434.34
2023-07-03T11:59:31.980Z,98440.88
2023-07-03T12:03:06.422Z,98452.00
2023-07-03T12:06:57.315Z,98439.06
2023-07-03T12:11:08.704Z,98437.52
2023-07-03T12:14:59.214Z,98443.05
2023-07-03T12:18:20.996Z,98429.75
2023-07-03T12:21:49.655Z,98436.06
2023-07-03T12:25:20.378Z,98427.47
2023-07-03T12:31:46.891Z,98441.22
2023-07-03T12:35:25.196Z,98427.41
2023-07-03T12:41:58.520Z,98433.71
2023-07-03T12:45:34.184Z,98426.43
2023-07-03T12:48:50.663Z,98416.96
2023-07-03T12:52:07.276Z,98427.03
2023-07-03T12:58:40.285Z,98420.81
2023-07-03T13:02:01.080Z,98415.39
2023-07-03T13:05:22.933Z,98407.84
2023-07-03T13:08:39.890Z,98406.29
2023-07-03T13:11:57.582Z,98402.02
2023-07-03T13:15:18.083Z,98410.24
2023-07-03T13:18:34.834Z,98404.88
2023-07-03T13:21:51.456Z,98395.19
2023-07-03T13:28:31.114Z,98400.02
2023-07-03T13:31:52.635Z,98396.28
2023-07-03T13:35:13.274Z,98401.31
2023-07-03T13:43:34.963Z,98393.70
2023-07-03T13:46:54.341Z,98398.83
2023-07-03T13:50:11.444Z,98391.48
2023-07-03T13:53:28.608Z,98373.64
2023-07-03T14:00:00.903Z,98386.13
2023-07-03T14:03:20.079Z,98389.06
2023-07-03T14:06:42.614Z,98385.75
2023-07-03T14:13:15.955Z,98384.39
2023-07-03T14:16:33.280Z,98382.77
2023-07-03T14:19:49.745Z,98376.29
2023-07-03T14:23:06.407Z,98378.80
2023-07-03T14:26:24.811Z,98374.70
2023-07-03T14:29:41.230Z,98380.70
2023-07-03T14:32:58.376Z,98385.09
2023-07-03T14:36:16.118Z,98386.75
2023-07-03T14:42:48.585Z,98377.88
2023-07-03T14:46:05.369Z,98385.49
2023-07-03T14:49:24.161Z,98374.94
2023-07-03T14:52:45.051Z,98374.67
2023-07-03T14:59:18.329Z,98375.83
2023-07-03T15:02:33.099Z,98371.78
2023-07-03T15:05:50.069Z,98372.88
2023-07-03T15:13:37.489Z,98371.08
2023-07-03T15:16:54.000Z,98367.33
2023-07-03T15:20:13.013Z,98368.95
2023-07-03T15:23:30.034Z,98364.09
2023-07-03T15:30:02.889Z,98360.88
2023-07-03T15:33:19.379Z,98360.11
2023-07-03T15:36:36.037Z,98359.08
2023-07-03T15:39:52.862Z,98358.25
2023-07-03T15:43:09.317Z,98358.25
2023-07-03T15:46:26.845Z,98356.07
2023-07-03T15:49:41.827Z,98356.36
2023-07-03T15:53:01.675Z,98350.41
2023-07-03T15:56:32.235Z,98345.28
2023-07-03T15:59:50.917Z,98351.80
2023-07-03T16:03:10.393Z,98341.24
2023-07-03T16:06:31.206Z,98347.46
2023-07-03T16:09:47.569Z,98353.18
2023-07-03T16:13:05.684Z,98356.19
2023-07-03T16:16:26.275Z,98351.05
2023-07-03T16:19:42.890Z,98348.34
2023-07-03T16:22:59.307Z,98357.03
2023-07-03T16:29:31.286Z,98365.22
2023-07-03T16:32:48.178Z,98361.98
2023-07-03T16:36:10.901Z,98362.03
2023-07-03T16:39:27.818Z,98361.78
2023-07-03T16:42:44.253Z,98363.72
2023-07-03T16:46:02.902Z,98366.48
2023-07-03T16:49:17.252Z,98366.78
2023-07-03T16:52:33.685Z,98369.25
2023-07-03T16:55:50.759Z,98379.84
2023-07-03T16:59:09.134Z,98371.20
2023-07-03T17:02:25.927Z,98364.76
2023-07-03T17:05:43.598Z,98369.42
2023-07-03T17:09:00.213Z,98375.38
2023-07-03T17:12:18.139Z,98370.83
2023-07-03T17:15:34.746Z,98369.76
2023-07-03T17:18:52.412Z,98371.42
2023-07-03T17:22:08.993Z,98374.45
2023-07-03T17:28:41.905Z,98375.83
2023-07-03T17:32:02.088Z,98373.19
2023-07-03T17:35:19.235Z,98375.67
2023-07-03T17:38:38.205Z,98368.91
2023-07-03T17:41:55.157Z,98375.95
2023-07-03T17:45:14.184Z,98379.51
2023-07-03T17:48:31.094Z,98368.45
2023-07-03T17:51:47.591Z,98373.06
2023-07-03T17:55:04.205Z,98376.36
2023-07-03T17:58:22.474Z,98374.75
2023-07-03T18:01:40.417Z,98366.64
2023-07-03T18:04:56.933Z,98370.96
2023-07-03T18:08:14.703Z,98366.67
2023-07-03T18:14:47.561Z,98373.98
2023-07-03T18:18:04.653Z,98367.78
2023-07-03T18:21:23.351Z,98366.72
2023-07-03T18:24:42.312Z,98364.02
2023-07-03T18:27:59.709Z,98374.84
2023-07-03T18:31:16.909Z,98370.23
2023-07-03T18:34:33.989Z,98375.89
2023-07-03T18:37:50.733Z,98374.52
2023-07-03T18:44:23.590Z,98384.20
2023-07-03T18:47:43.524Z,98389.88
2023-07-03T18:51:00.142Z,98390.92
2023-07-03T18:54:17.204Z,98392.79
2023-07-03T18:57:35.556Z,98394.68
2023-07-03T19:00:52.667Z,98400.06
2023-07-03T19:04:09.559Z,98405.70
2023-07-03T19:07:27.291Z,98410.02
2023-07-03T19:14:12.232Z,98409.96
2023-07-03T19:17:30.511Z,98417.70
2023-07-03T19:20:47.961Z,98421.14
2023-07-03T19:24:05.257Z,98422.21
2023-07-03T19:30:39.811Z,98427.81
2023-07-03T19:37:18.776Z,98437.21
2023-07-03T19:43:53.927Z,98429.92
2023-07-03T19:47:11.750Z,98426.94
2023-07-03T19:51:07.453Z,98432.53
2023-07-03T19:54:24.576Z,98427.88
2023-07-03T19:57:46.096Z,98420.02
2023-07-03T20:01:13.044Z,98432.47
2023-07-03T20:04:33.601Z,98445.61
2023-07-03T20:07:50.886Z,98439.61
2023-07-03T20:11:11.810Z,98444.73
2023-07-03T20:14:28.596Z,98440.94
2023-07-03T20:17:45.259Z,98445.00
2023-07-03T20:21:04.904Z,98448.00
2023-07-03T20:24:22.574Z,98443.94
2023-07-03T20:27:41.105Z,98449.06
2023-07-03T20:30:59.964Z,98449.06
2023-07-03T20:34:14.178Z,98446.93
2023-07-03T20:37:31.204Z,98450.99
2023-07-03T20:40:47.847Z,98453.42
2023-07-03T20:44:07.015Z,98446.97
2023-07-03T20:47:23.993Z,98437.55
2023-07-03T20:50:42.299Z,98440.84
2023-07-03T20:54:07.861Z,98439.25
2023-07-03T20:57:24.321Z,98446.89
2023-07-03T21:00:41.108Z,98448.76
2023-07-03T21:04:00.520Z,98457.11
2023-07-03T21:07:17.891Z,98446.33
2023-07-03T21:10:34.490Z,98444.44
2023-07-03T21:13:52.733Z,98444.16
2023-07-03T21:17:09.528Z,98444.44
2023-07-03T21:20:26.282Z,98450.13
2023-07-03T21:23:42.762Z,98451.80
2023-07-03T21:26:59.924Z,98456.61
2023-07-03T21:30:19.331Z,98450.73
2023-07-03T21:33:36.758Z,98454.48
2023-07-03T21:36:53.688Z,98461.36
2023-07-03T21:40:11.802Z,98461.43
2023-07-03T21:43:30.032Z,98467.88
2023-07-03T21:46:47.233Z,98468.14
2023-07-03T21:50:03.783Z,98459.34
2023-07-03T21:53:20.520Z,98462.83
2023-07-03T21:56:40.335Z,98465.27
2023-07-03T21:59:59.206Z,98459.65
2023-07-03T22:03:16.510Z,98456.69
2023-07-03T22:06:35.394Z,98465.34
2023-07-03T22:09:49.624Z,98475.55
2023-07-03T22:13:06.686Z,98479.56
2023-07-03T22:16:25.789Z,98477.89
2023-07-03T22:19:45.449Z,98478.15
2023-07-03T22:23:01.756Z,98468.08
2023-07-03T22:26:18.498Z,98473.16
2023-07-03T22:29:35.050Z,98468.27
2023-07-03T22:32:51.828Z,98457.76
2023-07-03T22:36:08.777Z,98467.16
2023-07-03T22:39:25.395Z,98472.23
2023-07-03T22:42:42.164Z,98470.59
2023-07-03T22:45:58.663Z,98468.97
2023-07-03T22:49:24.593Z,98467.05
2023-07-03T22:52:33.521Z,98466.43
2023-07-03T22:55:51.310Z,98470.49
2023-07-03T22:59:09.117Z,98472.98
2023-07-03T23:02:30.423Z,98470.28
2023-07-03T23:05:53.270Z,98476.81
2023-07-03T23:09:10.547Z,98470.16
2023-07-03T23:12:27.181Z,98475.75
2023-07-03T23:15:43.769Z,98479.51
2023-07-03T23:19:00.116Z,98479.03
2023-07-03T23:22:17.279Z,98481.78
2023-07-03T23:25:34.316Z,98469.45
2023-07-03T23:28:52.245Z,98487.78
2023-07-03T23:32:09.527Z,98485.09
2023-07-03T23:35:26.038Z,98487.55
2023-07-03T23:38:44.858Z,98474.84
2023-07-03T23:41:58.996Z,98465.39
2023-07-03T23:45:17.488Z,98465.03
2023-07-03T23:48:33.764Z,98466.63
2023-07-03T23:51:50.944Z,98463.66
2023-07-03T23:55:07.464Z,98471.12
2023-07-03T23:58:24.452Z,98468.38
